sensor_id;sensor_type;location;lat;lon;timestamp;pressure;altitude;pressure_sealevel;temperature
79756;BMP280;69239;50.678;12.280;2023-04-24T00:00:07;96465.09;;;12.68
79756;BMP280;69239;50.678;12.280;2023-04-24T00:02:38;96447.13;;;12.58
79756;BMP280;69239;50.678;12.280;2023-04-24T00:05:07;96460.84;;;12.64
79756;BMP280;69239;50.678;12.280;2023-04-24T00:07:33;96457.38;;;12.60
79756;BMP280;69239;50.678;12.280;2023-04-24T00:09:59;96457.38;;;12.60
79756;BMP280;69239;50.678;12.280;2023-04-24T00:12:25;96452.41;;;12.58
79756;BMP280;69239;50.678;12.280;2023-04-24T00:14:52;96447.84;;;12.55
79756;BMP280;69239;50.678;12.280;2023-04-24T00:17:17;96428.75;;;12.42
79756;BMP280;69239;50.678;12.280;2023-04-24T00:19:45;96436.38;;;12.47
79756;BMP280;69239;50.678;12.280;2023-04-24T00:22:11;96433.31;;;12.45
79756;BMP280;69239;50.678;12.280;2023-04-24T00:24:38;96431.38;;;12.42
79756;BMP280;69239;50.678;12.280;2023-04-24T00:27:03;96433.59;;;12.40
79756;BMP280;69239;50.678;12.280;2023-04-24T00:29:29;96427.56;;;12.40
79756;BMP280;69239;50.678;12.280;2023-04-24T00:31:54;96422.16;;;12.33
79756;BMP280;69239;50.678;12.280;2023-04-24T00:34:19;96421.06;;;12.37
79756;BMP280;69239;50.678;12.280;2023-04-24T00:36:45;96426.66;;;12.32
79756;BMP280;69239;50.678;12.280;2023-04-24T00:39:11;96423.94;;;12.29
79756;BMP280;69239;50.678;12.280;2023-04-24T00:41:36;96432.25;;;12.31
79756;BMP280;69239;50.678;12.280;2023-04-24T00:44:02;96422.00;;;12.26
79756;BMP280;69239;50.678;12.280;2023-04-24T00:46:28;96426.16;;;12.27
79756;BMP280;69239;50.678;12.280;2023-04-24T00:48:56;96423.53;;;12.27
79756;BMP280;69239;50.678;12.280;2023-04-24T00:51:21;96421.56;;;12.23
79756;BMP280;69239;50.678;12.280;2023-04-24T00:53:46;96421.56;;;12.23
79756;BMP280;69239;50.678;12.280;2023-04-24T00:56:12;96424.50;;;12.18
79756;BMP280;69239;50.678;12.280;2023-04-24T00:58:38;96418.53;;;12.21
79756;BMP280;69239;50.678;12.280;2023-04-24T01:01:03;96418.88;;;12.20
79756;BMP280;69239;50.678;12.280;2023-04-24T01:03:33;96414.25;;;12.17
79756;BMP280;69239;50.678;12.280;2023-04-24T01:05:58;96412.41;;;12.17
79756;BMP280;69239;50.678;12.280;2023-04-24T01:08:24;96419.47;;;12.13
79756;BMP280;69239;50.678;12.280;2023-04-24T01:10:51;96405.13;;;12.11
79756;BMP280;69239;50.678;12.280;2023-04-24T01:13:18;96408.50;;;12.11
79756;BMP280;69239;50.678;12.280;2023-04-24T01:15:43;96411.16;;;12.11
79756;BMP280;69239;50.678;12.280;2023-04-24T01:18:08;96400.00;;;12.02
79756;BMP280;69239;50.678;12.280;2023-04-24T01:20:34;96403.09;;;12.04
79756;BMP280;69239;50.678;12.280;2023-04-24T01:23:01;96405.28;;;12.02
79756;BMP280;69239;50.678;12.280;2023-04-24T01:25:27;96410.56;;;12.02
79756;BMP280;69239;50.678;12.280;2023-04-24T01:27:53;96414.31;;;12.01
79756;BMP280;69239;50.678;12.280;2023-04-24T01:30:19;96424.47;;;11.99
79756;BMP280;69239;50.678;12.280;2023-04-24T01:32:44;96415.34;;;11.97
79756;BMP280;69239;50.678;12.280;2023-04-24T01:35:10;96411.94;;;11.96
79756;BMP280;69239;50.678;12.280;2023-04-24T01:37:36;96408.47;;;11.92
79756;BMP280;69239;50.678;12.280;2023-04-24T01:40:04;96412.22;;;11.91
79756;BMP280;69239;50.678;12.280;2023-04-24T01:42:30;96414.88;;;11.91
79756;BMP280;69239;50.678;12.280;2023-04-24T01:44:56;96415.22;;;11.89
79756;BMP280;69239;50.678;12.280;2023-04-24T01:47:22;96423.44;;;11.88
79756;BMP280;69239;50.678;12.280;2023-04-24T01:49:48;96430.25;;;11.89
79756;BMP280;69239;50.678;12.280;2023-04-24T01:52:13;96415.81;;;11.83
79756;BMP280;69239;50.678;12.280;2023-04-24T01:54:38;96435.34;;;11.82
79756;BMP280;69239;50.678;12.280;2023-04-24T01:57:04;96432.72;;;11.82
79756;BMP280;69239;50.678;12.280;2023-04-24T01:59:29;96425.50;;;11.79
79756;BMP280;69239;50.678;12.280;2023-04-24T02:01:56;96434.16;;;11.79
79756;BMP280;69239;50.678;12.280;2023-04-24T02:04:21;96436.28;;;11.74
79756;BMP280;69239;50.678;12.280;2023-04-24T02:06:46;96435.53;;;11.73
79756;BMP280;69239;50.678;12.280;2023-04-24T02:09:12;96427.13;;;11.68
79756;BMP280;69239;50.678;12.280;2023-04-24T02:11:37;96413.09;;;11.64
79756;BMP280;69239;50.678;12.280;2023-04-24T02:14:02;96420.31;;;11.67
79756;BMP280;69239;50.678;12.280;2023-04-24T02:16:28;96419.91;;;11.65
79756;BMP280;69239;50.678;12.280;2023-04-24T02:18:58;96417.25;;;11.65
79756;BMP280;69239;50.678;12.280;2023-04-24T02:21:23;96417.97;;;11.62
79756;BMP280;69239;50.678;12.280;2023-04-24T02:23:49;96424.78;;;11.63
79756;BMP280;69239;50.678;12.280;2023-04-24T02:26:14;96418.63;;;11.58
79756;BMP280;69239;50.678;12.280;2023-04-24T02:28:40;96424.66;;;11.59
79756;BMP280;69239;50.678;12.280;2023-04-24T02:31:06;96419.34;;;11.55
79756;BMP280;69239;50.678;12.280;2023-04-24T02:33:31;96409.44;;;11.52
79756;BMP280;69239;50.678;12.280;2023-04-24T02:35:57;96407.91;;;11.51
79756;BMP280;69239;50.678;12.280;2023-04-24T02:38:22;96409.78;;;11.51
79756;BMP280;69239;50.678;12.280;2023-04-24T02:40:47;96401.13;;;11.50
79756;BMP280;69239;50.678;12.280;2023-04-24T02:43:13;96407.09;;;11.47
79756;BMP280;69239;50.678;12.280;2023-04-24T02:45:38;96401.84;;;11.47
79756;BMP280;69239;50.678;12.280;2023-04-24T02:48:03;96402.06;;;11.42
79756;BMP280;69239;50.678;12.280;2023-04-24T02:50:29;96405.88;;;11.45
79756;BMP280;69239;50.678;12.280;2023-04-24T02:52:54;96403.09;;;11.38
79756;BMP280;69239;50.678;12.280;2023-04-24T02:55:19;96405.38;;;11.39
79756;BMP280;69239;50.678;12.280;2023-04-24T02:57:45;96404.19;;;11.37
79756;BMP280;69239;50.678;12.280;2023-04-24T03:00:11;96400.78;;;11.36
79756;BMP280;69239;50.678;12.280;2023-04-24T03:02:36;96395.09;;;11.34
79756;BMP280;69239;50.678;12.280;2023-04-24T03:05:02;96391.72;;;11.34
79756;BMP280;69239;50.678;12.280;2023-04-24T03:07:28;96398.56;;;11.38
79756;BMP280;69239;50.678;12.280;2023-04-24T03:09:53;96391.78;;;11.37
79756;BMP280;69239;50.678;12.280;2023-04-24T03:12:19;96397.00;;;11.34
79756;BMP280;69239;50.678;12.280;2023-04-24T03:14:44;96408.59;;;11.33
79756;BMP280;69239;50.678;12.280;2023-04-24T03:17:09;96402.56;;;11.32
79756;BMP280;69239;50.678;12.280;2023-04-24T03:19:35;96399.94;;;11.32
79756;BMP280;69239;50.678;12.280;2023-04-24T03:22:02;96396.53;;;11.32
79756;BMP280;69239;50.678;12.280;2023-04-24T03:24:27;96395.44;;;11.33
79756;BMP280;69239;50.678;12.280;2023-04-24T03:26:53;96406.06;;;11.36
79756;BMP280;69239;50.678;12.280;2023-04-24T03:29:18;96390.97;;;11.33
79756;BMP280;69239;50.678;12.280;2023-04-24T03:31:44;96388.72;;;11.35
79756;BMP280;69239;50.678;12.280;2023-04-24T03:34:09;96390.59;;;11.35
79756;BMP280;69239;50.678;12.280;2023-04-24T03:36:35;96382.69;;;11.35
79756;BMP280;69239;50.678;12.280;2023-04-24T03:39:00;96388.03;;;11.38
79756;BMP280;69239;50.678;12.280;2023-04-24T03:41:25;96380.47;;;11.37
79756;BMP280;69239;50.678;12.280;2023-04-24T03:43:51;96383.44;;;11.35
79756;BMP280;69239;50.678;12.280;2023-04-24T03:46:16;96388.03;;;11.38
79756;BMP280;69239;50.678;12.280;2023-04-24T03:48:42;96387.28;;;11.38
79756;BMP280;69239;50.678;12.280;2023-04-24T03:51:07;96378.19;;;11.35
79756;BMP280;69239;50.678;12.280;2023-04-24T03:53:32;96386.84;;;11.36
79756;BMP280;69239;50.678;12.280;2023-04-24T03:55:58;96375.16;;;11.33
79756;BMP280;69239;50.678;12.280;2023-04-24T03:58:23;96388.72;;;11.35
79756;BMP280;69239;50.678;12.280;2023-04-24T04:00:49;96391.78;;;11.37
79756;BMP280;69239;50.678;12.280;2023-04-24T04:03:14;96389.41;;;11.32
79756;BMP280;69239;50.678;12.280;2023-04-24T04:05:40;96394.66;;;11.32
79756;BMP280;69239;50.678;12.280;2023-04-24T04:08:05;96403.75;;;11.35
79756;BMP280;69239;50.678;12.280;2023-04-24T04:10:31;96404.44;;;11.32
79756;BMP280;69239;50.678;12.280;2023-04-24T04:12:56;96391.59;;;11.30
79756;BMP280;69239;50.678;12.280;2023-04-24T04:15:22;96392.72;;;11.29
79756;BMP280;69239;50.678;12.280;2023-04-24T04:17:47;96397.97;;;11.29
79756;BMP280;69239;50.678;12.280;2023-04-24T04:20:12;96393.81;;;11.28
79756;BMP280;69239;50.678;12.280;2023-04-24T04:22:38;96396.13;;;11.30
79756;BMP280;69239;50.678;12.280;2023-04-24T04:25:05;96408.94;;;11.31
79756;BMP280;69239;50.678;12.280;2023-04-24T04:27:30;96406.31;;;11.31
79756;BMP280;69239;50.678;12.280;2023-04-24T04:29:58;96401.50;;;11.33
79756;BMP280;69239;50.678;12.280;2023-04-24T04:32:26;96393.22;;;11.35
79756;BMP280;69239;50.678;12.280;2023-04-24T04:34:51;96391.88;;;11.41
79756;BMP280;69239;50.678;12.280;2023-04-24T04:37:18;96406.38;;;11.50
79756;BMP280;69239;50.678;12.280;2023-04-24T04:39:45;96407.25;;;11.54
79756;BMP280;69239;50.678;12.280;2023-04-24T04:42:10;96400.59;;;11.61
79756;BMP280;69239;50.678;12.280;2023-04-24T04:44:35;96406.72;;;11.65
79756;BMP280;69239;50.678;12.280;2023-04-24T04:47:01;96397.69;;;11.66
79756;BMP280;69239;50.678;12.280;2023-04-24T04:49:31;96399.38;;;11.74
79756;BMP280;69239;50.678;12.280;2023-04-24T04:51:56;96407.03;;;11.79
79756;BMP280;69239;50.678;12.280;2023-04-24T04:54:22;96397.41;;;11.86
79756;BMP280;69239;50.678;12.280;2023-04-24T04:56:50;96393.75;;;11.91
79756;BMP280;69239;50.678;12.280;2023-04-24T04:59:15;96389.31;;;11.95
79756;BMP280;69239;50.678;12.280;2023-04-24T05:01:40;96389.75;;;11.97
79756;BMP280;69239;50.678;12.280;2023-04-24T05:04:06;96390.84;;;11.96
79756;BMP280;69239;50.678;12.280;2023-04-24T05:06:31;96399.34;;;12.05
79756;BMP280;69239;50.678;12.280;2023-04-24T05:08:57;96384.19;;;12.02
79756;BMP280;69239;50.678;12.280;2023-04-24T05:11:22;96394.88;;;12.09
79756;BMP280;69239;50.678;12.280;2023-04-24T05:13:48;96386.81;;;12.02
79756;BMP280;69239;50.678;12.280;2023-04-24T05:16:13;96392.09;;;12.02
79756;BMP280;69239;50.678;12.280;2023-04-24T05:18:39;96396.25;;;12.03
79756;BMP280;69239;50.678;12.280;2023-04-24T05:21:04;96400.88;;;12.06
79756;BMP280;69239;50.678;12.280;2023-04-24T05:23:29;96394.50;;;12.07
79756;BMP280;69239;50.678;12.280;2023-04-24T05:25:55;96406.97;;;12.10
79756;BMP280;69239;50.678;12.280;2023-04-24T05:28:21;96388.78;;;12.05
79756;BMP280;69239;50.678;12.280;2023-04-24T05:30:46;96388.78;;;12.05
79756;BMP280;69239;50.678;12.280;2023-04-24T05:33:12;96388.69;;;12.02
79756;BMP280;69239;50.678;12.280;2023-04-24T05:35:40;96406.97;;;12.10
79756;BMP280;69239;50.678;12.280;2023-04-24T05:38:10;96412.22;;;12.10
79756;BMP280;69239;50.678;12.280;2023-04-24T05:40:35;96406.03;;;12.03
79756;BMP280;69239;50.678;12.280;2023-04-24T05:43:01;96418.91;;;12.04
79756;BMP280;69239;50.678;12.280;2023-04-24T05:45:26;96414.31;;;12.01
79756;BMP280;69239;50.678;12.280;2023-04-24T05:47:53;96400.72;;;11.99
79756;BMP280;69239;50.678;12.280;2023-04-24T05:50:18;96419.56;;;12.01
79756;BMP280;69239;50.678;12.280;2023-04-24T05:52:44;96412.81;;;12.00
79756;BMP280;69239;50.678;12.280;2023-04-24T05:55:09;96415.81;;;12.02
79756;BMP280;69239;50.678;12.280;2023-04-24T05:57:35;96418.16;;;12.04
79756;BMP280;69239;50.678;12.280;2023-04-24T06:00:00;96415.44;;;12.00
79756;BMP280;69239;50.678;12.280;2023-04-24T06:02:25;96411.66;;;12.01
79756;BMP280;69239;50.678;12.280;2023-04-24T06:04:52;96398.47;;;12.01
79756;BMP280;69239;50.678;12.280;2023-04-24T06:07:18;96418.91;;;12.04
79756;BMP280;69239;50.678;12.280;2023-04-24T06:09:43;96418.22;;;12.07
79756;BMP280;69239;50.678;12.280;2023-04-24T06:12:09;96418.22;;;12.07
79756;BMP280;69239;50.678;12.280;2023-04-24T06:14:34;96415.75;;;12.14
79756;BMP280;69239;50.678;12.280;2023-04-24T06:17:00;96421.94;;;12.22
79756;BMP280;69239;50.678;12.280;2023-04-24T06:19:25;96407.69;;;12.27
79756;BMP280;69239;50.678;12.280;2023-04-24T06:21:50;96416.19;;;12.36
79756;BMP280;69239;50.678;12.280;2023-04-24T06:24:16;96414.56;;;12.50
79756;BMP280;69239;50.678;12.280;2023-04-24T06:26:42;96420.59;;;12.51
79756;BMP280;69239;50.678;12.280;2023-04-24T06:29:08;96419.47;;;12.52
79756;BMP280;69239;50.678;12.280;2023-04-24T06:31:33;96422.56;;;12.54
79756;BMP280;69239;50.678;12.280;2023-04-24T06:34:02;96417.28;;;12.54
79756;BMP280;69239;50.678;12.280;2023-04-24T06:36:28;96415.44;;;12.58
79756;BMP280;69239;50.678;12.280;2023-04-24T06:38:54;96414.69;;;12.57
79756;BMP280;69239;50.678;12.280;2023-04-24T06:41:19;96409.38;;;12.54
79756;BMP280;69239;50.678;12.280;2023-04-24T06:43:45;96414.69;;;12.57
79756;BMP280;69239;50.678;12.280;2023-04-24T06:46:10;96409.50;;;12.61
79756;BMP280;69239;50.678;12.280;2023-04-24T06:48:37;96409.63;;;12.68
79756;BMP280;69239;50.678;12.280;2023-04-24T06:51:02;96402.53;;;12.72
79756;BMP280;69239;50.678;12.280;2023-04-24T06:53:28;96411.34;;;12.80
79756;BMP280;69239;50.678;12.280;2023-04-24T06:55:54;96413.66;;;12.81
79756;BMP280;69239;50.678;12.280;2023-04-24T06:58:20;96404.91;;;12.77
79756;BMP280;69239;50.678;12.280;2023-04-24T07:00:45;96411.47;;;12.87
79756;BMP280;69239;50.678;12.280;2023-04-24T07:03:10;96402.50;;;12.92
79756;BMP280;69239;50.678;12.280;2023-04-24T07:05:36;96404.09;;;12.96
79756;BMP280;69239;50.678;12.280;2023-04-24T07:08:03;96403.50;;;13.06
79756;BMP280;69239;50.678;12.280;2023-04-24T07:10:29;96399.06;;;13.10
79756;BMP280;69239;50.678;12.280;2023-04-24T07:12:55;96411.38;;;13.26
79756;BMP280;69239;50.678;12.280;2023-04-24T07:15:22;96401.69;;;13.33
79756;BMP280;69239;50.678;12.280;2023-04-24T07:17:48;96407.03;;;13.37
79756;BMP280;69239;50.678;12.280;2023-04-24T07:20:13;96409.44;;;13.45
79756;BMP280;69239;50.678;12.280;2023-04-24T07:22:40;96410.66;;;13.51
79756;BMP280;69239;50.678;12.280;2023-04-24T07:25:06;96402.84;;;13.59
79756;BMP280;69239;50.678;12.280;2023-04-24T07:27:32;96400.63;;;13.64
79756;BMP280;69239;50.678;12.280;2023-04-24T07:29:57;96405.34;;;13.78
79756;BMP280;69239;50.678;12.280;2023-04-24T07:32:23;96410.75;;;13.85
79756;BMP280;69239;50.678;12.280;2023-04-24T07:34:48;96395.59;;;13.82
79756;BMP280;69239;50.678;12.280;2023-04-24T07:37:22;96411.03;;;14.06
79756;BMP280;69239;50.678;12.280;2023-04-24T07:39:57;96396.28;;;14.05
79756;BMP280;69239;50.678;12.280;2023-04-24T07:42:30;96399.34;;;14.07
79756;BMP280;69239;50.678;12.280;2023-04-24T07:45:00;96402.03;;;14.11
79756;BMP280;69239;50.678;12.280;2023-04-24T07:47:26;96406.66;;;14.17
79756;BMP280;69239;50.678;12.280;2023-04-24T07:49:56;96400.69;;;14.28
79756;BMP280;69239;50.678;12.280;2023-04-24T07:52:25;96399.03;;;14.46
79756;BMP280;69239;50.678;12.280;2023-04-24T07:54:54;96394.25;;;14.62
79756;BMP280;69239;50.678;12.280;2023-04-24T07:57:40;96389.84;;;14.73
79756;BMP280;69239;50.678;12.280;2023-04-24T08:00:08;96404.34;;;14.86
79756;BMP280;69239;50.678;12.280;2023-04-24T08:02:40;96396.00;;;14.84
79756;BMP280;69239;50.678;12.280;2023-04-24T08:05:08;96413.41;;;14.82
79756;BMP280;69239;50.678;12.280;2023-04-24T08:07:36;96389.03;;;14.69
79756;BMP280;69239;50.678;12.280;2023-04-24T08:10:03;96412.13;;;14.69
79756;BMP280;69239;50.678;12.280;2023-04-24T08:12:29;96412.56;;;14.74
79756;BMP280;69239;50.678;12.280;2023-04-24T08:14:54;96403.53;;;14.79
79756;BMP280;69239;50.678;12.280;2023-04-24T08:17:20;96415.03;;;14.94
79756;BMP280;69239;50.678;12.280;2023-04-24T08:19:45;96412.94;;;15.17
79756;BMP280;69239;50.678;12.280;2023-04-24T08:22:14;96413.44;;;15.30
79756;BMP280;69239;50.678;12.280;2023-04-24T08:24:40;96410.78;;;15.33
79756;BMP280;69239;50.678;12.280;2023-04-24T08:27:05;96412.34;;;15.34
79756;BMP280;69239;50.678;12.280;2023-04-24T08:29:31;96418.69;;;15.23
79756;BMP280;69239;50.678;12.280;2023-04-24T08:31:56;96422.78;;;15.13
79756;BMP280;69239;50.678;12.280;2023-04-24T08:34:22;96412.81;;;15.03
79756;BMP280;69239;50.678;12.280;2023-04-24T08:36:48;96439.38;;;15.10
79756;BMP280;69239;50.678;12.280;2023-04-24T08:39:14;96422.72;;;15.09
79756;BMP280;69239;50.678;12.280;2023-04-24T08:41:42;96432.63;;;15.16
79756;BMP280;69239;50.678;12.280;2023-04-24T08:44:09;96435.66;;;15.14
79756;BMP280;69239;50.678;12.280;2023-04-24T08:46:35;96448.19;;;15.17
79756;BMP280;69239;50.678;12.280;2023-04-24T08:49:01;96441.34;;;15.13
79756;BMP280;69239;50.678;12.280;2023-04-24T08:51:27;96446.97;;;15.11
79756;BMP280;69239;50.678;12.280;2023-04-24T08:53:55;96457.66;;;15.18
79756;BMP280;69239;50.678;12.280;2023-04-24T08:56:22;96455.78;;;15.23
79756;BMP280;69239;50.678;12.280;2023-04-24T08:58:50;96456.53;;;15.19
79756;BMP280;69239;50.678;12.280;2023-04-24T09:01:16;96468.28;;;15.22
79756;BMP280;69239;50.678;12.280;2023-04-24T09:03:42;96458.44;;;15.23
79756;BMP280;69239;50.678;12.280;2023-04-24T09:06:09;96463.38;;;15.24
79756;BMP280;69239;50.678;12.280;2023-04-24T09:08:35;96460.41;;;15.33
79756;BMP280;69239;50.678;12.280;2023-04-24T09:11:01;96457.13;;;15.46
79756;BMP280;69239;50.678;12.280;2023-04-24T09:13:28;96453.09;;;15.63
79756;BMP280;69239;50.678;12.280;2023-04-24T09:15:55;96454.28;;;15.73
79756;BMP280;69239;50.678;12.280;2023-04-24T09:18:22;96453.22;;;15.88
79756;BMP280;69239;50.678;12.280;2023-04-24T09:21:07;96458.09;;;15.82
79756;BMP280;69239;50.678;12.280;2023-04-24T09:23:33;96463.41;;;15.82
79756;BMP280;69239;50.678;12.280;2023-04-24T09:26:00;96465.31;;;15.78
79756;BMP280;69239;50.678;12.280;2023-04-24T09:28:34;96470.97;;;15.77
79756;BMP280;69239;50.678;12.280;2023-04-24T09:31:07;96471.75;;;15.81
79756;BMP280;69239;50.678;12.280;2023-04-24T09:33:33;96470.66;;;15.89
79756;BMP280;69239;50.678;12.280;2023-04-24T09:35:59;96466.97;;;16.04
79756;BMP280;69239;50.678;12.280;2023-04-24T09:38:35;96475.81;;;16.26
79756;BMP280;69239;50.678;12.280;2023-04-24T09:41:08;96476.28;;;16.49
79756;BMP280;69239;50.678;12.280;2023-04-24T09:43:37;96461.53;;;16.73
79756;BMP280;69239;50.678;12.280;2023-04-24T09:46:07;96473.00;;;16.95
79756;BMP280;69239;50.678;12.280;2023-04-24T09:48:35;96474.50;;;17.07
79756;BMP280;69239;50.678;12.280;2023-04-24T09:51:03;96471.44;;;17.08
79756;BMP280;69239;50.678;12.280;2023-04-24T09:53:29;96464.66;;;17.11
79756;BMP280;69239;50.678;12.280;2023-04-24T09:56:02;96478.31;;;17.27
79756;BMP280;69239;50.678;12.280;2023-04-24T09:58:28;96474.91;;;17.41
79756;BMP280;69239;50.678;12.280;2023-04-24T10:00:55;96472.56;;;17.68
79756;BMP280;69239;50.678;12.280;2023-04-24T10:03:24;96476.69;;;17.97
79756;BMP280;69239;50.678;12.280;2023-04-24T10:05:51;96476.63;;;18.18
79756;BMP280;69239;50.678;12.280;2023-04-24T10:08:17;96467.28;;;18.65
79756;BMP280;69239;50.678;12.280;2023-04-24T10:10:44;96469.25;;;19.10
79756;BMP280;69239;50.678;12.280;2023-04-24T10:13:15;96471.44;;;19.22
79756;BMP280;69239;50.678;12.280;2023-04-24T10:16:01;96484.22;;;18.96
79756;BMP280;69239;50.678;12.280;2023-04-24T10:18:36;96481.69;;;18.72
79756;BMP280;69239;50.678;12.280;2023-04-24T10:21:03;96503.88;;;18.58
79756;BMP280;69239;50.678;12.280;2023-04-24T10:23:30;96471.97;;;18.40
79756;BMP280;69239;50.678;12.280;2023-04-24T10:25:59;96496.25;;;18.56
79756;BMP280;69239;50.678;12.280;2023-04-24T10:28:26;96465.91;;;18.32
79756;BMP280;69239;50.678;12.280;2023-04-24T10:30:54;96490.22;;;18.42
79756;BMP280;69239;50.678;12.280;2023-04-24T10:33:21;96500.91;;;18.34
79756;BMP280;69239;50.678;12.280;2023-04-24T10:35:50;96473.59;;;18.16
79756;BMP280;69239;50.678;12.280;2023-04-24T10:38:21;96482.69;;;18.29
79756;BMP280;69239;50.678;12.280;2023-04-24T10:40:50;96481.88;;;18.40
79756;BMP280;69239;50.678;12.280;2023-04-24T10:43:19;96473.53;;;18.38
79756;BMP280;69239;50.678;12.280;2023-04-24T10:46:06;96486.72;;;18.59
79756;BMP280;69239;50.678;12.280;2023-04-24T10:48:52;96468.50;;;18.50
79756;BMP280;69239;50.678;12.280;2023-04-24T10:51:24;96462.47;;;18.43
79756;BMP280;69239;50.678;12.280;2023-04-24T10:54:34;96492.84;;;18.49
79756;BMP280;69239;50.678;12.280;2023-04-24T10:57:26;96500.56;;;18.32
79756;BMP280;69239;50.678;12.280;2023-04-24T11:00:13;96506.59;;;18.44
79756;BMP280;69239;50.678;12.280;2023-04-24T11:02:40;96501.25;;;18.51
79756;BMP280;69239;50.678;12.280;2023-04-24T11:05:12;96497.72;;;18.68
79756;BMP280;69239;50.678;12.280;2023-04-24T11:08:11;96501.00;;;18.93
79756;BMP280;69239;50.678;12.280;2023-04-24T11:10:45;96507.09;;;18.94
79756;BMP280;69239;50.678;12.280;2023-04-24T11:13:15;96504.09;;;18.88
79756;BMP280;69239;50.678;12.280;2023-04-24T11:15:43;96499.94;;;18.80
79756;BMP280;69239;50.678;12.280;2023-04-24T11:18:15;96501.34;;;18.95
79756;BMP280;69239;50.678;12.280;2023-04-24T11:20:44;96499.06;;;18.97
79756;BMP280;69239;50.678;12.280;2023-04-24T11:23:12;96524.16;;;19.03
79756;BMP280;69239;50.678;12.280;2023-04-24T11:25:38;96518.94;;;18.86
79756;BMP280;69239;50.678;12.280;2023-04-24T11:28:04;96517.56;;;18.60
79756;BMP280;69239;50.678;12.280;2023-04-24T11:30:32;96532.09;;;18.52
79756;BMP280;69239;50.678;12.280;2023-04-24T11:33:05;96532.16;;;18.38
79756;BMP280;69239;50.678;12.280;2023-04-24T11:35:35;96505.13;;;18.36
79756;BMP280;69239;50.678;12.280;2023-04-24T11:38:02;96520.25;;;18.53
79756;BMP280;69239;50.678;12.280;2023-04-24T11:40:28;96525.63;;;18.46
79756;BMP280;69239;50.678;12.280;2023-04-24T11:42:54;96524.53;;;18.32
79756;BMP280;69239;50.678;12.280;2023-04-24T11:45:27;96542.09;;;18.19
79756;BMP280;69239;50.678;12.280;2023-04-24T11:47:53;96536.06;;;17.90
79756;BMP280;69239;50.678;12.280;2023-04-24T11:50:21;96526.97;;;17.59
79756;BMP280;69239;50.678;12.280;2023-04-24T11:52:49;96539.88;;;17.57
79756;BMP280;69239;50.678;12.280;2023-04-24T11:57:43;96553.56;;;17.52
79756;BMP280;69239;50.678;12.280;2023-04-24T12:00:15;96528.84;;;17.48
79756;BMP280;69239;50.678;12.280;2023-04-24T12:02:41;96551.31;;;17.79
79756;BMP280;69239;50.678;12.280;2023-04-24T12:05:07;96536.06;;;17.94
79756;BMP280;69239;50.678;12.280;2023-04-24T12:07:40;96525.38;;;18.05
79756;BMP280;69239;50.678;12.280;2023-04-24T12:10:08;96541.28;;;18.26
79756;BMP280;69239;50.678;12.280;2023-04-24T12:12:34;96541.28;;;18.26
79756;BMP280;69239;50.678;12.280;2023-04-24T12:15:00;96532.16;;;18.20
79756;BMP280;69239;50.678;12.280;2023-04-24T12:17:33;96534.50;;;18.14
79756;BMP280;69239;50.678;12.280;2023-04-24T12:20:07;96545.13;;;18.07
79756;BMP280;69239;50.678;12.280;2023-04-24T12:22:53;96544.81;;;17.94
79756;BMP280;69239;50.678;12.280;2023-04-24T12:25:21;96551.28;;;17.83
79756;BMP280;69239;50.678;12.280;2023-04-24T12:27:51;96536.09;;;17.73
79756;BMP280;69239;50.678;12.280;2023-04-24T12:30:17;96548.25;;;17.74
79756;BMP280;69239;50.678;12.280;2023-04-24T12:32:45;96535.31;;;17.54
79756;BMP280;69239;50.678;12.280;2023-04-24T12:35:11;96552.06;;;17.58
79756;BMP280;69239;50.678;12.280;2023-04-24T12:37:36;96539.16;;;17.46
79756;BMP280;69239;50.678;12.280;2023-04-24T12:40:06;96548.63;;;17.40
79756;BMP280;69239;50.678;12.280;2023-04-24T12:42:33;96540.66;;;17.26
79756;BMP280;69239;50.678;12.280;2023-04-24T12:45:00;96525.78;;;17.04
79756;BMP280;69239;50.678;12.280;2023-04-24T12:47:27;96542.13;;;17.06
79756;BMP280;69239;50.678;12.280;2023-04-24T12:49:52;96543.25;;;17.05
79756;BMP280;69239;50.678;12.280;2023-04-24T12:52:19;96540.97;;;17.00
79756;BMP280;69239;50.678;12.280;2023-04-24T12:54:47;96547.81;;;17.01
79756;BMP280;69239;50.678;12.280;2023-04-24T12:57:12;96541.28;;;16.87
79756;BMP280;69239;50.678;12.280;2023-04-24T12:59:38;96536.03;;;16.91
79756;BMP280;69239;50.678;12.280;2023-04-24T13:02:04;96539.47;;;17.09
79756;BMP280;69239;50.678;12.280;2023-04-24T13:04:30;96526.97;;;17.31
79756;BMP280;69239;50.678;12.280;2023-04-24T13:06:55;96521.66;;;17.42
79756;BMP280;69239;50.678;12.280;2023-04-24T13:09:20;96508.34;;;17.45
79756;BMP280;69239;50.678;12.280;2023-04-24T13:11:46;96524.69;;;17.69
79756;BMP280;69239;50.678;12.280;2023-04-24T13:14:11;96518.97;;;17.63
79756;BMP280;69239;50.678;12.280;2023-04-24T13:16:37;96522.00;;;17.69
79756;BMP280;69239;50.678;12.280;2023-04-24T13:19:02;96504.53;;;17.60
79756;BMP280;69239;50.678;12.280;2023-04-24T13:21:29;96533.03;;;17.85
79756;BMP280;69239;50.678;12.280;2023-04-24T13:23:55;96507.16;;;17.78
79756;BMP280;69239;50.678;12.280;2023-04-24T13:26:21;96523.88;;;17.93
79756;BMP280;69239;50.678;12.280;2023-04-24T13:28:46;96522.38;;;17.88
79756;BMP280;69239;50.678;12.280;2023-04-24T13:31:11;96530.75;;;17.87
79756;BMP280;69239;50.678;12.280;2023-04-24T13:33:37;96530.00;;;17.76
79756;BMP280;69239;50.678;12.280;2023-04-24T13:36:02;96517.47;;;17.58
79756;BMP280;69239;50.678;12.280;2023-04-24T13:38:28;96527.34;;;17.54
79756;BMP280;69239;50.678;12.280;2023-04-24T13:40:53;96516.69;;;17.47
79756;BMP280;69239;50.678;12.280;2023-04-24T13:43:20;96524.69;;;17.54
79756;BMP280;69239;50.678;12.280;2023-04-24T13:45:45;96514.06;;;17.61
79756;BMP280;69239;50.678;12.280;2023-04-24T13:48:10;96507.94;;;17.64
79756;BMP280;69239;50.678;12.280;2023-04-24T13:50:36;96508.72;;;17.76
79756;BMP280;69239;50.678;12.280;2023-04-24T13:53:02;96535.31;;;17.76
79756;BMP280;69239;50.678;12.280;2023-04-24T13:55:27;96524.31;;;17.67
79756;BMP280;69239;50.678;12.280;2023-04-24T13:57:53;96509.50;;;17.51